Time;durP1;ratioP1;P1;durP2;ratioP2;P2;SDS_P1;SDS_P2;PMS_P1;PMS_P2;Temp;Humidity;BMP_temperature;BMP_pressure;BME280_temperature;BME280_humidity;BME280_pressure;Samples;Min_cycle;Max_cycle;Signal;HPM_P1;HPM_P2
2023/12/04 00:01:50;;;;;;;31.48;21.55;;;;;;;;;;6096747;23;20088;-82
2023/12/04 00:04:15;;;;;;;32.97;20.23;;;;;;;;;;6096879;23;20758;-84
2023/12/04 00:06:41;;;;;;;33.80;20.45;;;;;;;;;;6096139;23;19998;-83
2023/12/04 00:09:06;;;;;;;63.33;35.00;;;;;;;;;;6096531;23;20009;-83
2023/12/04 00:11:32;;;;;;;68.65;35.85;;;;;;;;;;6122201;23;20013;-83
2023/12/04 00:13:58;;;;;;;36.63;22.98;;;;;;;;;;6122618;23;20053;-83
2023/12/04 00:16:23;;;;;;;42.28;26.23;;;;;;;;;;6122762;23;19994;-84
2023/12/04 00:18:48;;;;;;;40.22;24.88;;;;;;;;;;6122618;23;20009;-83
2023/12/04 00:21:13;;;;;;;40.47;25.30;;;;;;;;;;6095759;23;20009;-82
2023/12/04 00:23:39;;;;;;;30.98;17.20;;;;;;;;;;6122338;23;20009;-83
2023/12/04 00:26:04;;;;;;;21.00;12.88;;;;;;;;;;6096868;23;20486;-84
2023/12/04 00:28:30;;;;;;;51.42;28.50;;;;;;;;;;6096428;23;20001;-82
2023/12/04 00:30:55;;;;;;;25.20;13.77;;;;;;;;;;6096256;23;20335;-84
2023/12/04 00:33:20;;;;;;;31.23;18.23;;;;;;;;;;6096740;23;20400;-83
2023/12/04 00:35:45;;;;;;;18.20;13.10;;;;;;;;;;6097065;23;20073;-85
2023/12/04 00:38:11;;;;;;;45.25;27.00;;;;;;;;;;6096082;23;20002;-82
2023/12/04 00:40:36;;;;;;;24.98;17.88;;;;;;;;;;6095721;23;20470;-83
2023/12/04 00:43:01;;;;;;;37.95;22.52;;;;;;;;;;6097023;23;20025;-82
2023/12/04 00:45:27;;;;;;;28.38;22.55;;;;;;;;;;6096546;23;20009;-81
2023/12/04 00:47:52;;;;;;;27.17;19.45;;;;;;;;;;6096653;23;19998;-82
2023/12/04 00:50:18;;;;;;;29.67;19.08;;;;;;;;;;6122728;23;20053;-84
2023/12/04 00:52:43;;;;;;;44.35;25.35;;;;;;;;;;6096509;23;19997;-83
2023/12/04 00:55:08;;;;;;;21.75;15.82;;;;;;;;;;6097349;23;20438;-83
2023/12/04 00:57:33;;;;;;;19.23;14.82;;;;;;;;;;6097981;23;20005;-83
2023/12/04 00:59:59;;;;;;;70.25;40.60;;;;;;;;;;6123018;23;19997;-83
2023/12/04 01:02:24;;;;;;;54.47;27.92;;;;;;;;;;6096328;23;20053;-83
2023/12/04 01:04:50;;;;;;;88.88;44.40;;;;;;;;;;6095699;23;20001;-83
2023/12/04 01:07:15;;;;;;;142.65;73.97;;;;;;;;;;6095262;23;20081;-82
2023/12/04 01:09:41;;;;;;;28.83;17.48;;;;;;;;;;6096198;23;20001;-85
2023/12/04 01:12:06;;;;;;;13.70;9.43;;;;;;;;;;6095312;23;20009;-83
2023/12/04 01:14:32;;;;;;;15.77;11.30;;;;;;;;;;6096150;23;20006;-85
2023/12/04 01:16:58;;;;;;;81.35;42.33;;;;;;;;;;6121847;23;20347;-83
2023/12/04 01:19:24;;;;;;;21.33;13.93;;;;;;;;;;6122479;23;20029;-82
2023/12/04 01:21:49;;;;;;;16.33;12.52;;;;;;;;;;6121501;23;20445;-82
2023/12/04 01:24:15;;;;;;;21.15;13.48;;;;;;;;;;6121208;23;20485;-83
2023/12/04 01:26:40;;;;;;;13.75;10.40;;;;;;;;;;6121721;23;20458;-82
2023/12/04 01:29:06;;;;;;;17.55;12.52;;;;;;;;;;6095450;23;20001;-83
2023/12/04 01:31:31;;;;;;;23.40;14.77;;;;;;;;;;6121200;23;19998;-83
2023/12/04 01:33:56;;;;;;;57.20;27.70;;;;;;;;;;6121362;23;20057;-83
2023/12/04 01:36:22;;;;;;;12.48;9.73;;;;;;;;;;6095014;23;20009;-84
2023/12/04 01:38:47;;;;;;;13.32;10.00;;;;;;;;;;6095040;23;20056;-84
2023/12/04 01:41:12;;;;;;;30.38;19.02;;;;;;;;;;6121369;23;20017;-83
2023/12/04 01:43:37;;;;;;;14.38;11.10;;;;;;;;;;6094888;23;20500;-83
2023/12/04 01:46:03;;;;;;;30.88;17.40;;;;;;;;;;6094833;23;20024;-82
2023/12/04 01:48:29;;;;;;;11.52;9.77;;;;;;;;;;6095620;23;20079;-83
2023/12/04 01:50:55;;;;;;;14.88;12.40;;;;;;;;;;6071451;23;20033;-85
2023/12/04 01:53:20;;;;;;;13.10;10.77;;;;;;;;;;6095780;23;19998;-84
2023/12/04 01:55:46;;;;;;;17.55;13.00;;;;;;;;;;6095685;23;20002;-84
2023/12/04 01:58:12;;;;;;;27.73;18.50;;;;;;;;;;6095088;23;20034;-84
2023/12/04 02:00:37;;;;;;;15.25;11.30;;;;;;;;;;6121010;23;20490;-83
2023/12/04 02:03:02;;;;;;;38.13;21.75;;;;;;;;;;6095331;23;20002;-84
2023/12/04 02:05:28;;;;;;;19.48;13.48;;;;;;;;;;6095050;23;20006;-83
2023/12/04 02:07:53;;;;;;;29.75;20.13;;;;;;;;;;6095386;23;20334;-84
2023/12/04 02:10:19;;;;;;;28.67;20.17;;;;;;;;;;6071713;23;20002;-84
2023/12/04 02:12:44;;;;;;;24.52;16.30;;;;;;;;;;6095631;23;19998;-84
2023/12/04 02:15:11;;;;;;;26.65;16.88;;;;;;;;;;6095636;23;19994;-84
2023/12/04 02:17:37;;;;;;;31.90;18.33;;;;;;;;;;6096884;23;19998;-84
2023/12/04 02:20:03;;;;;;;16.63;11.02;;;;;;;;;;6122682;23;20005;-84
2023/12/04 02:22:29;;;;;;;23.20;15.23;;;;;;;;;;6096704;23;20009;-84
2023/12/04 02:24:58;;;;;;;34.95;22.30;;;;;;;;;;6095731;23;20058;-84
2023/12/04 02:27:26;;;;;;;25.73;17.25;;;;;;;;;;6095588;23;20338;-84
2023/12/04 02:29:56;;;;;;;22.77;15.68;;;;;;;;;;6095661;23;20002;-84
2023/12/04 02:32:22;;;;;;;22.25;14.18;;;;;;;;;;6095523;23;20014;-83
2023/12/04 02:34:49;;;;;;;29.30;18.00;;;;;;;;;;6095697;23;20076;-83
2023/12/04 02:37:14;;;;;;;27.63;16.63;;;;;;;;;;6095268;23;20119;-83
2023/12/04 02:39:42;;;;;;;20.33;13.40;;;;;;;;;;6095928;23;20065;-84
2023/12/04 02:42:07;;;;;;;23.95;16.05;;;;;;;;;;6095664;23;20025;-83
2023/12/04 02:44:32;;;;;;;18.73;11.98;;;;;;;;;;6095461;23;20076;-84
2023/12/04 02:46:58;;;;;;;20.05;12.85;;;;;;;;;;6121061;23;19998;-84
2023/12/04 02:49:23;;;;;;;16.77;11.32;;;;;;;;;;6095597;23;20502;-84
2023/12/04 02:51:48;;;;;;;16.45;11.15;;;;;;;;;;6094672;23;20454;-84
2023/12/04 02:54:14;;;;;;;15.73;10.48;;;;;;;;;;6096360;23;20076;-84
2023/12/04 02:56:39;;;;;;;14.00;10.07;;;;;;;;;;6096067;23;19998;-84
2023/12/04 02:59:04;;;;;;;18.23;10.85;;;;;;;;;;6122256;23;20002;-84
2023/12/04 03:01:30;;;;;;;20.33;12.65;;;;;;;;;;6096106;23;20006;-83
2023/12/04 03:03:55;;;;;;;23.13;14.23;;;;;;;;;;6122113;23;20005;-83
2023/12/04 03:06:20;;;;;;;21.47;12.00;;;;;;;;;;6096566;23;20025;-83
2023/12/04 03:08:46;;;;;;;26.17;16.65;;;;;;;;;;6122747;23;19994;-83
2023/12/04 03:11:11;;;;;;;33.53;20.77;;;;;;;;;;6122799;23;20038;-85
2023/12/04 03:13:37;;;;;;;24.65;15.50;;;;;;;;;;6096329;23;20001;-84
2023/12/04 03:16:02;;;;;;;30.42;16.95;;;;;;;;;;6096477;23;20002;-84
2023/12/04 03:18:28;;;;;;;31.15;17.58;;;;;;;;;;6096542;23;20098;-85
2023/12/04 03:20:54;;;;;;;31.73;20.25;;;;;;;;;;6122707;23;20311;-84
2023/12/04 03:23:19;;;;;;;21.70;14.68;;;;;;;;;;6096823;23;20028;-84
2023/12/04 03:25:44;;;;;;;25.67;15.48;;;;;;;;;;6096177;23;20508;-85
2023/12/04 03:28:10;;;;;;;24.30;16.58;;;;;;;;;;6096341;23;20004;-83
2023/12/04 03:30:36;;;;;;;20.70;13.30;;;;;;;;;;6121628;23;20537;-85
2023/12/04 03:33:01;;;;;;;19.67;13.05;;;;;;;;;;6123518;23;20060;-85
2023/12/04 03:35:27;;;;;;;23.97;15.10;;;;;;;;;;6123706;23;20027;-83
2023/12/04 03:37:52;;;;;;;24.52;14.65;;;;;;;;;;6097482;23;20025;-83
2023/12/04 03:40:17;;;;;;;28.58;16.17;;;;;;;;;;6096911;23;20002;-84
2023/12/04 03:42:43;;;;;;;25.98;16.20;;;;;;;;;;6096520;23;20226;-84
2023/12/04 03:45:08;;;;;;;27.10;16.77;;;;;;;;;;6073249;23;20006;-84
2023/12/04 03:47:34;;;;;;;29.50;19.40;;;;;;;;;;6096405;23;19994;-83
2023/12/04 03:49:59;;;;;;;29.20;18.73;;;;;;;;;;6096472;23;20001;-83
2023/12/04 03:52:24;;;;;;;32.72;20.05;;;;;;;;;;6096040;23;20053;-83
2023/12/04 03:54:50;;;;;;;30.20;18.00;;;;;;;;;;6096861;23;20366;-83
2023/12/04 03:57:15;;;;;;;30.87;18.10;;;;;;;;;;6096624;23;20023;-84
2023/12/04 03:59:41;;;;;;;33.10;17.60;;;;;;;;;;6123219;23;20008;-83
2023/12/04 04:02:06;;;;;;;35.10;20.30;;;;;;;;;;6096430;23;19998;-83
2023/12/04 04:04:31;;;;;;;59.90;28.03;;;;;;;;;;6096999;23;20414;-83
2023/12/04 04:06:57;;;;;;;43.67;23.87;;;;;;;;;;6096676;23;20422;-86
2023/12/04 04:09:22;;;;;;;29.87;18.93;;;;;;;;;;6097046;23;19994;-85
2023/12/04 04:11:47;;;;;;;30.80;17.70;;;;;;;;;;6096382;23;20005;-83
2023/12/04 04:14:13;;;;;;;26.77;16.33;;;;;;;;;;6096846;23;20009;-85
2023/12/04 04:16:38;;;;;;;40.40;27.90;;;;;;;;;;6096598;23;20016;-83
2023/12/04 04:19:03;;;;;;;24.23;15.97;;;;;;;;;;6122258;23;19998;-82
2023/12/04 04:21:29;;;;;;;26.87;15.93;;;;;;;;;;6096812;23;20001;-84
2023/12/04 04:23:54;;;;;;;34.33;19.07;;;;;;;;;;6096890;23;20025;-83
2023/12/04 04:26:19;;;;;;;31.07;19.73;;;;;;;;;;6096093;23;20453;-83
2023/12/04 04:28:45;;;;;;;32.27;21.00;;;;;;;;;;6122759;23;20006;-84
2023/12/04 04:31:10;;;;;;;36.50;21.27;;;;;;;;;;6122782;23;20025;-84
2023/12/04 04:33:36;;;;;;;32.63;18.13;;;;;;;;;;6096450;23;19998;-85
2023/12/04 04:36:01;;;;;;;46.20;26.80;;;;;;;;;;6096704;23;19998;-85
2023/12/04 04:38:26;;;;;;;39.97;21.27;;;;;;;;;;6096467;23;20323;-84
2023/12/04 04:40:52;;;;;;;46.90;23.27;;;;;;;;;;6122288;23;20064;-83
2023/12/04 04:43:18;;;;;;;51.27;28.60;;;;;;;;;;6095812;23;20056;-84
2023/12/04 04:45:43;;;;;;;53.13;30.30;;;;;;;;;;6122548;23;20073;-83
2023/12/04 04:48:08;;;;;;;37.07;21.27;;;;;;;;;;6095978;23;19994;-83
2023/12/04 04:50:34;;;;;;;36.80;21.77;;;;;;;;;;6122929;23;20342;-82
2023/12/04 04:52:59;;;;;;;34.47;21.40;;;;;;;;;;6095851;23;20002;-84
2023/12/04 04:55:24;;;;;;;42.73;24.67;;;;;;;;;;6096498;23;19998;-85
2023/12/04 04:57:49;;;;;;;36.43;20.23;;;;;;;;;;6096754;23;20005;-85
2023/12/04 05:00:16;;;;;;;39.40;21.87;;;;;;;;;;6099474;23;20013;-84
2023/12/04 05:02:41;;;;;;;45.80;25.40;;;;;;;;;;6099634;23;20004;-84
2023/12/04 05:05:06;;;;;;;41.07;25.03;;;;;;;;;;6097111;23;20401;-83
2023/12/04 05:07:32;;;;;;;37.33;22.73;;;;;;;;;;6096711;23;20002;-85
2023/12/04 05:09:57;;;;;;;44.27;26.10;;;;;;;;;;6096832;23;20049;-85
2023/12/04 05:12:22;;;;;;;33.00;19.07;;;;;;;;;;6095985;23;19998;-85
2023/12/04 05:14:47;;;;;;;42.93;25.57;;;;;;;;;;6096579;23;20351;-84
2023/12/04 05:17:13;;;;;;;45.53;23.60;;;;;;;;;;6096816;23;20006;-84
2023/12/04 05:19:38;;;;;;;36.57;23.23;;;;;;;;;;6122259;23;20390;-85
2023/12/04 05:22:03;;;;;;;51.67;27.50;;;;;;;;;;6096309;23;20482;-86
2023/12/04 05:24:29;;;;;;;85.60;40.43;;;;;;;;;;6122975;23;20025;-85
2023/12/04 05:26:54;;;;;;;49.60;25.30;;;;;;;;;;6096535;23;20109;-85
2023/12/04 05:29:19;;;;;;;45.90;24.13;;;;;;;;;;6096038;23;19997;-84
2023/12/04 05:31:45;;;;;;;53.93;29.93;;;;;;;;;;6122241;23;20103;-84
2023/12/04 05:34:10;;;;;;;85.37;41.63;;;;;;;;;;6072929;23;20010;-85
2023/12/04 05:36:35;;;;;;;50.50;34.27;;;;;;;;;;6096709;23;20006;-85
2023/12/04 05:39:01;;;;;;;54.33;31.47;;;;;;;;;;6096369;23;20457;-85
2023/12/04 05:41:26;;;;;;;137.53;49.70;;;;;;;;;;6061433;23;20021;-86
2023/12/04 05:43:51;;;;;;;131.30;54.53;;;;;;;;;;6061864;23;19995;-84
2023/12/04 05:46:18;;;;;;;90.53;43.40;;;;;;;;;;6037734;23;20006;-85
2023/12/04 05:48:44;;;;;;;74.73;40.37;;;;;;;;;;6061435;23;19999;-85
2023/12/04 05:51:11;;;;;;;82.40;42.67;;;;;;;;;;6037523;23;20005;-84
2023/12/04 05:53:36;;;;;;;63.50;34.93;;;;;;;;;;6060915;23;20009;-85
2023/12/04 05:56:01;;;;;;;64.27;37.10;;;;;;;;;;6036390;23;20335;-85
2023/12/04 05:58:27;;;;;;;107.83;44.90;;;;;;;;;;6037443;23;20444;-85
2023/12/04 06:00:52;;;;;;;100.40;41.93;;;;;;;;;;6060920;23;20049;-85
2023/12/04 06:03:17;;;;;;;110.63;49.67;;;;;;;;;;6036918;23;20003;-85
2023/12/04 06:05:43;;;;;;;96.93;50.83;;;;;;;;;;6037299;23;20088;-85
2023/12/04 06:08:08;;;;;;;124.87;53.07;;;;;;;;;;6036616;23;20010;-85
2023/12/04 06:10:35;;;;;;;101.03;45.30;;;;;;;;;;6061437;23;20431;-85
2023/12/04 06:13:00;;;;;;;89.40;45.67;;;;;;;;;;6080093;23;20001;-85
2023/12/04 06:15:25;;;;;;;110.80;49.20;;;;;;;;;;6095749;23;19998;-85
2023/12/04 06:17:51;;;;;;;112.07;44.17;;;;;;;;;;6122354;23;20006;-85
2023/12/04 06:20:16;;;;;;;104.40;42.60;;;;;;;;;;6121564;23;20075;-86
2023/12/04 06:22:42;;;;;;;155.10;70.03;;;;;;;;;;6121948;23;19998;-85
2023/12/04 06:25:07;;;;;;;116.20;46.80;;;;;;;;;;6096564;23;20342;-84
2023/12/04 06:27:33;;;;;;;65.27;37.87;;;;;;;;;;6115418;23;20002;-87
2023/12/04 06:29:59;;;;;;;129.07;62.47;;;;;;;;;;6121158;23;20378;-85
2023/12/04 06:32:24;;;;;;;147.13;66.47;;;;;;;;;;6094752;23;20013;-84
2023/12/04 06:34:51;;;;;;;65.03;36.93;;;;;;;;;;6097021;23;20355;-84
2023/12/04 06:37:16;;;;;;;76.23;37.40;;;;;;;;;;6097265;23;19998;-84
2023/12/04 06:39:44;;;;;;;86.30;36.53;;;;;;;;;;6095978;23;20006;-84
2023/12/04 06:42:11;;;;;;;66.57;32.63;;;;;;;;;;6097188;23;20211;-86
2023/12/04 06:44:36;;;;;;;86.17;40.07;;;;;;;;;;6123877;23;20148;-86
2023/12/04 06:47:02;;;;;;;118.90;51.87;;;;;;;;;;6095672;23;20005;-86
2023/12/04 06:49:32;;;;;;;73.17;38.77;;;;;;;;;;6121813;23;20000;-84
2023/12/04 06:51:58;;;;;;;135.40;57.50;;;;;;;;;;6096537;23;20450;-86
2023/12/04 06:54:24;;;;;;;282.50;107.00;;;;;;;;;;6123790;23;20002;-84
2023/12/04 06:56:50;;;;;;;174.30;71.93;;;;;;;;;;6073711;23;20106;-84
2023/12/04 06:59:15;;;;;;;275.67;125.63;;;;;;;;;;6097954;23;20009;-84
2023/12/04 07:01:40;;;;;;;90.77;45.57;;;;;;;;;;6097132;23;20009;-85
2023/12/04 07:04:09;;;;;;;178.30;81.70;;;;;;;;;;6122855;23;20018;-84
2023/12/04 07:06:41;;;;;;;135.20;60.93;;;;;;;;;;6098595;23;19998;-85
2023/12/04 07:09:09;;;;;;;279.50;136.03;;;;;;;;;;6126006;23;20346;-83
2023/12/04 07:11:34;;;;;;;108.70;53.17;;;;;;;;;;6120682;23;20002;-84
2023/12/04 07:14:00;;;;;;;116.13;58.00;;;;;;;;;;6099742;23;20002;-85
2023/12/04 07:16:25;;;;;;;178.27;81.47;;;;;;;;;;6099730;23;20045;-84
2023/12/04 07:18:50;;;;;;;168.63;62.33;;;;;;;;;;6125524;23;20010;-84
2023/12/04 07:21:16;;;;;;;134.17;53.47;;;;;;;;;;6100084;23;20006;-85
2023/12/04 07:23:42;;;;;;;91.30;43.67;;;;;;;;;;6098810;23;20307;-86
2023/12/04 07:26:07;;;;;;;110.07;56.57;;;;;;;;;;6099785;23;19990;-85
2023/12/04 07:28:33;;;;;;;84.67;45.70;;;;;;;;;;6100033;23;20068;-86
2023/12/04 07:30:58;;;;;;;79.13;47.70;;;;;;;;;;6125037;23;20033;-84
2023/12/04 07:33:24;;;;;;;73.13;42.37;;;;;;;;;;6099916;23;20017;-85
2023/12/04 07:35:51;;;;;;;83.10;42.20;;;;;;;;;;6099693;23;20422;-84
2023/12/04 07:38:16;;;;;;;76.57;36.83;;;;;;;;;;6099241;23;20002;-84
2023/12/04 07:40:41;;;;;;;70.77;39.40;;;;;;;;;;6126950;23;20014;-85
2023/12/04 07:43:07;;;;;;;67.00;34.97;;;;;;;;;;6125849;23;20021;-82
2023/12/04 07:45:34;;;;;;;81.30;41.20;;;;;;;;;;6099390;23;20016;-83
2023/12/04 07:48:00;;;;;;;62.33;35.67;;;;;;;;;;6099496;23;20006;-84
2023/12/04 07:50:25;;;;;;;47.55;25.83;;;;;;;;;;6098957;23;20004;-83
2023/12/04 07:52:51;;;;;;;61.08;32.42;;;;;;;;;;6098313;23;20468;-83
2023/12/04 07:55:17;;;;;;;62.25;32.03;;;;;;;;;;6124517;23;20423;-84
2023/12/04 07:57:43;;;;;;;59.53;30.85;;;;;;;;;;6124437;23;19990;-83
2023/12/04 08:00:08;;;;;;;64.57;34.88;;;;;;;;;;6097731;23;20016;-83
2023/12/04 08:02:34;;;;;;;67.57;34.03;;;;;;;;;;6123778;23;19997;-85
2023/12/04 08:04:59;;;;;;;54.40;29.50;;;;;;;;;;6124779;23;19993;-81
2023/12/04 08:07:24;;;;;;;62.58;35.15;;;;;;;;;;6099003;23;20009;-83
2023/12/04 08:09:50;;;;;;;41.50;28.50;;;;;;;;;;6125857;23;20008;-84
2023/12/04 08:12:15;;;;;;;48.50;25.92;;;;;;;;;;6097924;23;20061;-83
2023/12/04 08:14:40;;;;;;;49.03;27.83;;;;;;;;;;6097313;23;19998;-83
2023/12/04 08:17:06;;;;;;;39.55;27.35;;;;;;;;;;6096893;23;20025;-82
2023/12/04 08:19:31;;;;;;;92.97;45.88;;;;;;;;;;6096481;23;20054;-83
2023/12/04 08:21:56;;;;;;;48.60;28.88;;;;;;;;;;6097297;23;20335;-83
2023/12/04 08:24:22;;;;;;;58.92;31.77;;;;;;;;;;6097340;23;20017;-85
2023/12/04 08:26:47;;;;;;;40.75;23.35;;;;;;;;;;6096788;23;20006;-84
2023/12/04 08:29:12;;;;;;;68.18;35.55;;;;;;;;;;6095340;23;20434;-84
2023/12/04 08:31:39;;;;;;;36.40;20.63;;;;;;;;;;6096792;23;20013;-83
2023/12/04 08:34:04;;;;;;;23.40;16.25;;;;;;;;;;6097336;23;20490;-84
2023/12/04 08:36:30;;;;;;;33.85;20.00;;;;;;;;;;6097568;23;20028;-83
2023/12/04 08:38:55;;;;;;;34.40;20.65;;;;;;;;;;6122468;23;20072;-84
2023/12/04 08:41:21;;;;;;;28.60;17.55;;;;;;;;;;6123156;23;20017;-84
2023/12/04 08:43:46;;;;;;;33.33;19.80;;;;;;;;;;6097355;23;20257;-84
2023/12/04 08:46:13;;;;;;;29.52;17.67;;;;;;;;;;6097398;23;20045;-85
2023/12/04 08:48:40;;;;;;;40.42;25.52;;;;;;;;;;6099816;23;20434;-85
2023/12/04 08:51:05;;;;;;;41.70;24.40;;;;;;;;;;6096535;23;20002;-85
2023/12/04 08:53:30;;;;;;;18.63;13.52;;;;;;;;;;6096993;23;20025;-84
2023/12/04 08:55:57;;;;;;;64.43;35.55;;;;;;;;;;6096372;23;20029;-85
2023/12/04 08:58:22;;;;;;;33.15;20.52;;;;;;;;;;6122735;23;20446;-84
2023/12/04 09:00:47;;;;;;;17.27;13.73;;;;;;;;;;6096783;23;20009;-84
2023/12/04 09:03:13;;;;;;;27.38;15.60;;;;;;;;;;6072791;23;20064;-85
2023/12/04 09:05:38;;;;;;;117.03;62.92;;;;;;;;;;6122282;23;20080;-85
2023/12/04 09:08:05;;;;;;;16.85;13.18;;;;;;;;;;6096925;23;20009;-85
2023/12/04 09:10:30;;;;;;;28.83;19.25;;;;;;;;;;6072661;23;20002;-85
2023/12/04 09:12:55;;;;;;;22.90;13.88;;;;;;;;;;6095615;23;20016;-84
2023/12/04 09:15:21;;;;;;;25.17;15.50;;;;;;;;;;6095784;23;20009;-85
2023/12/04 09:17:46;;;;;;;22.77;17.17;;;;;;;;;;6121725;23;20002;-85
2023/12/04 09:20:12;;;;;;;19.63;16.50;;;;;;;;;;6121772;23;20084;-85
2023/12/04 09:22:38;;;;;;;19.80;12.88;;;;;;;;;;6095194;23;20006;-85
2023/12/04 09:25:08;;;;;;;18.50;13.30;;;;;;;;;;6095990;23;20235;-85
2023/12/04 09:27:34;;;;;;;12.85;10.20;;;;;;;;;;6095627;23;19998;-85
2023/12/04 09:29:59;;;;;;;18.27;14.23;;;;;;;;;;6095571;23;20128;-84
2023/12/04 09:32:26;;;;;;;18.92;13.73;;;;;;;;;;6096497;23;20002;-83
2023/12/04 09:34:54;;;;;;;28.65;20.67;;;;;;;;;;6096023;23;20006;-83
2023/12/04 09:37:19;;;;;;;18.60;13.23;;;;;;;;;;6095771;23;20056;-83
2023/12/04 09:39:45;;;;;;;18.50;14.85;;;;;;;;;;6095478;23;20300;-85
2023/12/04 09:42:10;;;;;;;13.05;10.52;;;;;;;;;;6096230;23;20439;-85
2023/12/04 09:44:36;;;;;;;15.57;12.27;;;;;;;;;;6071622;23;20030;-85
2023/12/04 09:47:02;;;;;;;27.17;17.98;;;;;;;;;;6095514;23;20001;-85
2023/12/04 09:49:30;;;;;;;12.25;9.65;;;;;;;;;;6095813;23;20025;-83
2023/12/04 09:51:57;;;;;;;32.42;22.17;;;;;;;;;;6095401;23;20182;-83
2023/12/04 09:54:23;;;;;;;22.05;15.88;;;;;;;;;;6095553;23;20465;-84
2023/12/04 09:56:49;;;;;;;12.73;9.65;;;;;;;;;;6121172;23;20005;-84
2023/12/04 09:59:15;;;;;;;25.27;19.70;;;;;;;;;;6095650;23;20006;-84
2023/12/04 10:01:41;;;;;;;11.25;9.43;;;;;;;;;;6095329;23;19998;-86
2023/12/04 10:04:06;;;;;;;9.05;7.65;;;;;;;;;;6095313;23;20005;-84
2023/12/04 10:06:32;;;;;;;19.27;13.52;;;;;;;;;;6121504;23;20427;-84
2023/12/04 10:08:58;;;;;;;11.23;9.15;;;;;;;;;;6095654;23;20029;-84
2023/12/04 10:11:27;;;;;;;13.43;9.80;;;;;;;;;;6095700;23;20005;-85
2023/12/04 10:13:52;;;;;;;31.95;16.75;;;;;;;;;;6008849;23;20011;-84
2023/12/04 10:16:35;;;;;;;82.13;35.80;;;;;;;;;;6032001;23;20012;-84
2023/12/04 10:19:18;;;;;;;25.08;18.20;;;;;;;;;;6033992;23;20007;-85
2023/12/04 10:21:45;;;;;;;135.85;84.90;;;;;;;;;;6009177;23;20094;-84
2023/12/04 10:24:10;;;;;;;30.83;21.63;;;;;;;;;;6032084;23;20014;-83
2023/12/04 10:26:35;;;;;;;28.95;21.73;;;;;;;;;;6032267;23;20030;-84
2023/12/04 10:29:02;;;;;;;11.40;9.82;;;;;;;;;;6031662;23;20014;-85
2023/12/04 10:31:31;;;;;;;12.48;9.30;;;;;;;;;;6030947;23;20011;-83
2023/12/04 10:33:57;;;;;;;29.10;26.27;;;;;;;;;;6032295;23;20007;-83
2023/12/04 10:36:22;;;;;;;11.60;10.00;;;;;;;;;;6032362;23;20519;-86
2023/12/04 10:38:57;;;;;;;10.27;8.63;;;;;;;;;;6032118;23;20007;-84
2023/12/04 10:41:22;;;;;;;8.50;6.20;;;;;;;;;;6003594;23;20548;-85
2023/12/04 10:43:48;;;;;;;24.70;14.52;;;;;;;;;;5983930;23;20016;-84
2023/12/04 10:46:16;;;;;;;10.25;7.97;;;;;;;;;;6063109;23;20339;-86
2023/12/04 10:48:43;;;;;;;13.82;9.45;;;;;;;;;;6062758;23;19994;-84
2023/12/04 10:51:10;;;;;;;12.02;9.40;;;;;;;;;;6064355;23;20007;-85
2023/12/04 10:53:36;;;;;;;13.00;8.85;;;;;;;;;;6063791;23;20002;-84
2023/12/04 10:56:02;;;;;;;130.07;88.57;;;;;;;;;;6062882;23;20006;-85
2023/12/04 10:58:29;;;;;;;12.30;10.70;;;;;;;;;;6061805;23;20006;-85
2023/12/04 11:00:54;;;;;;;40.22;26.35;;;;;;;;;;6062018;23;20002;-86
2023/12/04 11:03:37;;;;;;;12.35;10.25;;;;;;;;;;6062284;23;20369;-84
2023/12/04 11:06:04;;;;;;;11.07;8.80;;;;;;;;;;6061897;23;20003;-86
2023/12/04 11:08:32;;;;;;;13.68;10.50;;;;;;;;;;6061333;23;20440;-85
2023/12/04 11:11:09;;;;;;;16.83;13.20;;;;;;;;;;6062972;23;20002;-85
2023/12/04 11:13:36;;;;;;;11.00;9.05;;;;;;;;;;6061711;23;20424;-85
2023/12/04 11:16:05;;;;;;;14.38;11.15;;;;;;;;;;6062544;23;20013;-86
2023/12/04 11:18:33;;;;;;;15.77;10.50;;;;;;;;;;6061811;23;20094;-84
2023/12/04 11:21:03;;;;;;;12.65;9.63;;;;;;;;;;6063869;23;20039;-86
2023/12/04 11:23:29;;;;;;;10.43;7.28;;;;;;;;;;6061424;23;20348;-84
2023/12/04 11:25:55;;;;;;;11.70;9.15;;;;;;;;;;6062483;23;20003;-85
2023/12/04 11:28:21;;;;;;;11.88;9.77;;;;;;;;;;6061675;23;20454;-85
2023/12/04 11:30:47;;;;;;;25.27;15.75;;;;;;;;;;6063289;23;20025;-86
2023/12/04 11:33:14;;;;;;;304.13;195.60;;;;;;;;;;6062207;23;20010;-85
2023/12/04 11:35:39;;;;;;;32.65;26.67;;;;;;;;;;6062199;23;20011;-84
2023/12/04 11:38:06;;;;;;;35.92;26.75;;;;;;;;;;6062025;23;20065;-84
2023/12/04 11:40:32;;;;;;;19.52;12.98;;;;;;;;;;6067469;23;20014;-85
2023/12/04 11:42:57;;;;;;;11.20;9.07;;;;;;;;;;6090642;23;20081;-85
2023/12/04 11:45:23;;;;;;;9.43;7.65;;;;;;;;;;6092098;23;19999;-86
2023/12/04 11:47:53;;;;;;;14.88;9.98;;;;;;;;;;6091278;23;19999;-85
2023/12/04 11:50:19;;;;;;;15.30;11.45;;;;;;;;;;6091337;23;20003;-86
2023/12/04 11:52:45;;;;;;;19.98;13.68;;;;;;;;;;6092081;23;20355;-85
2023/12/04 11:55:11;;;;;;;34.50;23.13;;;;;;;;;;6094169;23;20002;-85
2023/12/04 11:57:37;;;;;;;26.30;17.25;;;;;;;;;;6094144;23;20049;-85
2023/12/04 12:00:06;;;;;;;40.47;26.23;;;;;;;;;;6091983;23;20093;-86
2023/12/04 12:02:31;;;;;;;44.80;27.38;;;;;;;;;;6092197;23;20006;-84
2023/12/04 12:04:58;;;;;;;50.58;25.38;;;;;;;;;;6091231;23;20077;-85
2023/12/04 12:07:23;;;;;;;14.63;10.70;;;;;;;;;;6092208;23;20006;-84
2023/12/04 12:09:48;;;;;;;11.05;7.68;;;;;;;;;;6092163;23;20458;-85
2023/12/04 12:12:15;;;;;;;16.45;10.00;;;;;;;;;;6094333;23;20391;-85
2023/12/04 12:14:40;;;;;;;25.25;14.73;;;;;;;;;;6092900;23;20006;-85
2023/12/04 12:17:06;;;;;;;17.40;11.05;;;;;;;;;;6093333;23;20006;-85
2023/12/04 12:19:32;;;;;;;14.52;10.25;;;;;;;;;;6092947;23;20427;-84
2023/12/04 12:21:58;;;;;;;9.98;8.35;;;;;;;;;;6094298;23;20419;-85
2023/12/04 12:24:26;;;;;;;21.45;19.17;;;;;;;;;;6092323;23;20009;-85
2023/12/04 12:26:51;;;;;;;8.85;7.95;;;;;;;;;;6093183;23;20022;-87
2023/12/04 12:29:17;;;;;;;14.48;12.85;;;;;;;;;;6092854;23;20006;-86
2023/12/04 12:31:42;;;;;;;9.13;7.82;;;;;;;;;;6093050;23;20101;-88
2023/12/04 12:34:07;;;;;;;8.20;7.40;;;;;;;;;;6092166;23;20085;-86
2023/12/04 12:36:34;;;;;;;7.40;6.70;;;;;;;;;;6094673;23;20002;-85
2023/12/04 12:39:00;;;;;;;8.32;6.97;;;;;;;;;;6068607;23;20431;-87
2023/12/04 12:41:26;;;;;;;10.10;8.75;;;;;;;;;;6092572;23;20074;-85
2023/12/04 12:43:52;;;;;;;8.85;7.95;;;;;;;;;;6093238;23;20015;-85
2023/12/04 12:46:17;;;;;;;11.05;9.90;;;;;;;;;;6093415;23;19998;-85
2023/12/04 12:48:43;;;;;;;7.57;6.78;;;;;;;;;;6094339;23;20116;-86
2023/12/04 12:51:11;;;;;;;11.23;9.07;;;;;;;;;;6095227;23;20033;-85
2023/12/04 12:53:36;;;;;;;8.50;6.97;;;;;;;;;;6097049;23;20498;-85
2023/12/04 12:56:02;;;;;;;13.25;11.95;;;;;;;;;;6095115;23;20002;-83
2023/12/04 12:58:28;;;;;;;13.88;12.48;;;;;;;;;;6094566;23;20002;-85
2023/12/04 13:00:53;;;;;;;16.23;13.27;;;;;;;;;;6093818;23;20002;-86
2023/12/04 13:03:19;;;;;;;8.00;6.72;;;;;;;;;;6093700;23;20002;-85
2023/12/04 13:05:44;;;;;;;11.48;10.38;;;;;;;;;;6093892;23;20022;-84
2023/12/04 13:08:11;;;;;;;10.50;9.50;;;;;;;;;;6092251;23;20010;-86
2023/12/04 13:10:36;;;;;;;12.25;11.15;;;;;;;;;;6092669;23;20062;-86
2023/12/04 13:13:02;;;;;;;7.97;5.63;;;;;;;;;;6092627;23;19998;-87
2023/12/04 13:15:27;;;;;;;7.97;5.70;;;;;;;;;;6092138;23;20419;-88
2023/12/04 13:17:53;;;;;;;5.10;4.60;;;;;;;;;;6093376;23;20090;-86
2023/12/04 13:20:18;;;;;;;5.35;4.85;;;;;;;;;;6092306;23;20058;-87
2023/12/04 13:22:43;;;;;;;10.02;9.23;;;;;;;;;;6092833;23;19998;-85
2023/12/04 13:25:09;;;;;;;10.40;7.82;;;;;;;;;;6092406;23;20036;-85
2023/12/04 13:27:38;;;;;;;40.65;34.25;;;;;;;;;;6094443;23;20424;-85
2023/12/04 13:30:04;;;;;;;6.43;5.68;;;;;;;;;;6094594;23;19998;-86
2023/12/04 13:32:29;;;;;;;11.48;9.10;;;;;;;;;;6092831;23;20422;-86
2023/12/04 13:34:55;;;;;;;23.70;14.70;;;;;;;;;;6092736;23;20089;-86
2023/12/04 13:37:20;;;;;;;13.85;12.43;;;;;;;;;;6092179;23;19999;-86
2023/12/04 13:39:51;;;;;;;11.23;8.45;;;;;;;;;;6092265;23;19999;-86
2023/12/04 13:45:01;;;;;;;8.77;7.75;;;;;;;;;;6094444;23;20434;-86
2023/12/04 13:47:26;;;;;;;5.10;4.60;;;;;;;;;;6092907;23;20145;-86
2023/12/04 13:49:52;;;;;;;5.05;4.55;;;;;;;;;;6092335;23;20014;-87
2023/12/04 13:52:22;;;;;;;6.93;4.63;;;;;;;;;;6091754;23;20038;-86
2023/12/04 13:54:49;;;;;;;4.78;4.30;;;;;;;;;;6092076;23;20003;-86
2023/12/04 13:57:28;;;;;;;5.65;4.60;;;;;;;;;;6091854;23;20438;-86
2023/12/04 13:59:53;;;;;;;;;;;;;;;;;;6092956;23;20036;-85
2023/12/04 14:02:18;;;;;;;5.22;4.72;;;;;;;;;;6092317;23;19913;-85
2023/12/04 14:04:44;;;;;;;6.78;4.75;;;;;;;;;;6091326;23;20547;-85
2023/12/04 14:07:11;;;;;;;5.82;4.72;;;;;;;;;;6092643;23;20423;-85
2023/12/04 14:09:36;;;;;;;42.08;22.00;;;;;;;;;;6091800;23;20429;-85
2023/12/04 14:12:01;;;;;;;35.47;19.13;;;;;;;;;;6090831;23;20008;-83
2023/12/04 14:14:27;;;;;;;27.88;17.27;;;;;;;;;;6089741;23;20447;-83